sensor_id;sensor_type;location;lat;lon;timestamp;P1;durP1;ratioP1;P2;durP2;ratioP2
51190;SDS011;37253;48.736;9.294;2023-09-18T00:01:27;4.57;;;2.00;;
51190;SDS011;37253;48.736;9.294;2023-09-18T00:03:28;5.35;;;1.90;;
51190;SDS011;37253;48.736;9.294;2023-09-18T00:05:28;3.83;;;2.05;;
51190;SDS011;37253;48.736;9.294;2023-09-18T00:07:29;5.18;;;2.55;;
51190;SDS011;37253;48.736;9.294;2023-09-18T00:09:29;1.92;;;1.65;;
51190;SDS011;37253;48.736;9.294;2023-09-18T00:11:29;3.78;;;2.20;;
51190;SDS011;37253;48.736;9.294;2023-09-18T00:13:30;5.15;;;1.80;;
51190;SDS011;37253;48.736;9.294;2023-09-18T00:15:30;3.45;;;2.20;;
51190;SDS011;37253;48.736;9.294;2023-09-18T00:17:31;1.70;;;1.50;;
51190;SDS011;37253;48.736;9.294;2023-09-18T00:19:32;2.80;;;1.90;;
51190;SDS011;37253;48.736;9.294;2023-09-18T00:21:33;4.28;;;1.73;;
51190;SDS011;37253;48.736;9.294;2023-09-18T00:23:34;3.10;;;2.08;;
51190;SDS011;37253;48.736;9.294;2023-09-18T00:25:35;4.13;;;2.13;;
51190;SDS011;37253;48.736;9.294;2023-09-18T00:27:36;1.70;;;1.58;;
51190;SDS011;37253;48.736;9.294;2023-09-18T00:29:37;4.43;;;2.17;;
51190;SDS011;37253;48.736;9.294;2023-09-18T00:31:37;3.72;;;1.92;;
51190;SDS011;37253;48.736;9.294;2023-09-18T00:33:37;2.55;;;1.80;;
51190;SDS011;37253;48.736;9.294;2023-09-18T00:35:38;2.17;;;1.90;;
51190;SDS011;37253;48.736;9.294;2023-09-18T00:37:38;2.42;;;1.80;;
51190;SDS011;37253;48.736;9.294;2023-09-18T00:39:39;4.60;;;2.10;;
51190;SDS011;37253;48.736;9.294;2023-09-18T00:41:41;2.38;;;1.80;;
51190;SDS011;37253;48.736;9.294;2023-09-18T00:43:42;4.03;;;1.60;;
51190;SDS011;37253;48.736;9.294;2023-09-18T00:45:44;3.78;;;1.73;;
51190;SDS011;37253;48.736;9.294;2023-09-18T00:47:46;2.03;;;1.73;;
51190;SDS011;37253;48.736;9.294;2023-09-18T00:49:46;2.67;;;1.67;;
51190;SDS011;37253;48.736;9.294;2023-09-18T00:51:49;4.63;;;2.03;;
51190;SDS011;37253;48.736;9.294;2023-09-18T00:53:50;3.22;;;2.00;;
51190;SDS011;37253;48.736;9.294;2023-09-18T00:55:52;1.98;;;1.80;;
51190;SDS011;37253;48.736;9.294;2023-09-18T00:57:55;3.97;;;2.00;;
51190;SDS011;37253;48.736;9.294;2023-09-18T00:59:55;3.60;;;1.98;;
51190;SDS011;37253;48.736;9.294;2023-09-18T01:01:56;2.58;;;1.80;;
51190;SDS011;37253;48.736;9.294;2023-09-18T01:03:56;3.05;;;1.90;;
51190;SDS011;37253;48.736;9.294;2023-09-18T01:05:57;2.38;;;1.55;;
51190;SDS011;37253;48.736;9.294;2023-09-18T01:07:59;2.55;;;1.80;;
51190;SDS011;37253;48.736;9.294;2023-09-18T01:09:59;2.15;;;1.60;;
51190;SDS011;37253;48.736;9.294;2023-09-18T01:12:08;3.60;;;2.05;;
51190;SDS011;37253;48.736;9.294;2023-09-18T01:14:42;3.85;;;1.92;;
51190;SDS011;37253;48.736;9.294;2023-09-18T01:16:56;2.45;;;2.03;;
51190;SDS011;37253;48.736;9.294;2023-09-18T01:18:57;2.92;;;1.90;;
51190;SDS011;37253;48.736;9.294;2023-09-18T01:20:57;3.08;;;1.90;;
51190;SDS011;37253;48.736;9.294;2023-09-18T01:22:58;3.22;;;1.83;;
51190;SDS011;37253;48.736;9.294;2023-09-18T01:24:58;2.05;;;1.85;;
51190;SDS011;37253;48.736;9.294;2023-09-18T01:26:58;2.67;;;1.95;;
51190;SDS011;37253;48.736;9.294;2023-09-18T01:28:59;2.45;;;1.80;;
51190;SDS011;37253;48.736;9.294;2023-09-18T01:30:59;2.15;;;1.50;;
51190;SDS011;37253;48.736;9.294;2023-09-18T01:32:59;3.53;;;2.00;;
51190;SDS011;37253;48.736;9.294;2023-09-18T01:35:02;3.00;;;1.83;;
51190;SDS011;37253;48.736;9.294;2023-09-18T01:37:05;2.53;;;1.70;;
51190;SDS011;37253;48.736;9.294;2023-09-18T01:39:08;2.17;;;1.65;;
51190;SDS011;37253;48.736;9.294;2023-09-18T01:41:10;2.63;;;1.92;;
51190;SDS011;37253;48.736;9.294;2023-09-18T01:43:11;2.05;;;1.73;;
51190;SDS011;37253;48.736;9.294;2023-09-18T01:45:11;2.50;;;1.60;;
51190;SDS011;37253;48.736;9.294;2023-09-18T01:47:13;2.33;;;1.98;;
51190;SDS011;37253;48.736;9.294;2023-09-18T01:49:15;2.55;;;1.92;;
51190;SDS011;37253;48.736;9.294;2023-09-18T01:51:15;2.50;;;1.85;;
51190;SDS011;37253;48.736;9.294;2023-09-18T01:53:16;2.13;;;1.67;;
51190;SDS011;37253;48.736;9.294;2023-09-18T01:55:16;3.65;;;2.00;;
51190;SDS011;37253;48.736;9.294;2023-09-18T01:57:16;2.85;;;2.00;;
51190;SDS011;37253;48.736;9.294;2023-09-18T01:59:20;2.40;;;1.70;;
51190;SDS011;37253;48.736;9.294;2023-09-18T02:01:20;3.10;;;1.90;;
51190;SDS011;37253;48.736;9.294;2023-09-18T02:03:21;2.78;;;1.67;;
51190;SDS011;37253;48.736;9.294;2023-09-18T02:05:22;2.33;;;1.67;;
51190;SDS011;37253;48.736;9.294;2023-09-18T02:07:22;2.47;;;1.70;;
51190;SDS011;37253;48.736;9.294;2023-09-18T02:09:22;3.08;;;2.20;;
51190;SDS011;37253;48.736;9.294;2023-09-18T02:11:23;1.60;;;1.50;;
51190;SDS011;37253;48.736;9.294;2023-09-18T02:13:23;4.05;;;1.98;;
51190;SDS011;37253;48.736;9.294;2023-09-18T02:15:23;2.50;;;1.73;;
51190;SDS011;37253;48.736;9.294;2023-09-18T02:17:24;1.70;;;1.45;;
51190;SDS011;37253;48.736;9.294;2023-09-18T02:19:24;2.58;;;1.95;;
51190;SDS011;37253;48.736;9.294;2023-09-18T02:21:24;2.60;;;1.60;;
51190;SDS011;37253;48.736;9.294;2023-09-18T02:23:25;3.15;;;1.88;;
51190;SDS011;37253;48.736;9.294;2023-09-18T02:25:25;1.67;;;1.58;;
51190;SDS011;37253;48.736;9.294;2023-09-18T02:27:26;2.00;;;1.63;;
51190;SDS011;37253;48.736;9.294;2023-09-18T02:29:26;1.65;;;1.42;;
51190;SDS011;37253;48.736;9.294;2023-09-18T02:31:27;1.70;;;1.60;;
51190;SDS011;37253;48.736;9.294;2023-09-18T02:33:28;2.08;;;1.83;;
51190;SDS011;37253;48.736;9.294;2023-09-18T02:35:28;2.00;;;1.65;;
51190;SDS011;37253;48.736;9.294;2023-09-18T02:37:29;2.22;;;2.00;;
51190;SDS011;37253;48.736;9.294;2023-09-18T02:39:30;2.40;;;1.90;;
51190;SDS011;37253;48.736;9.294;2023-09-18T02:41:30;3.33;;;1.77;;
51190;SDS011;37253;48.736;9.294;2023-09-18T02:43:30;1.88;;;1.58;;
51190;SDS011;37253;48.736;9.294;2023-09-18T02:45:31;2.00;;;1.80;;
51190;SDS011;37253;48.736;9.294;2023-09-18T02:47:31;2.97;;;1.95;;
51190;SDS011;37253;48.736;9.294;2023-09-18T02:49:33;1.77;;;1.50;;
51190;SDS011;37253;48.736;9.294;2023-09-18T02:51:34;3.55;;;1.65;;
51190;SDS011;37253;48.736;9.294;2023-09-18T02:53:34;2.55;;;1.75;;
51190;SDS011;37253;48.736;9.294;2023-09-18T02:55:34;2.03;;;1.75;;
51190;SDS011;37253;48.736;9.294;2023-09-18T02:57:35;2.35;;;1.90;;
51190;SDS011;37253;48.736;9.294;2023-09-18T02:59:35;1.92;;;1.70;;
51190;SDS011;37253;48.736;9.294;2023-09-18T03:01:35;1.88;;;1.70;;
51190;SDS011;37253;48.736;9.294;2023-09-18T03:03:36;2.63;;;1.70;;
51190;SDS011;37253;48.736;9.294;2023-09-18T03:05:36;1.98;;;1.77;;
51190;SDS011;37253;48.736;9.294;2023-09-18T03:07:37;2.15;;;1.83;;
51190;SDS011;37253;48.736;9.294;2023-09-18T03:09:37;3.10;;;1.98;;
51190;SDS011;37253;48.736;9.294;2023-09-18T03:11:37;1.92;;;1.60;;
51190;SDS011;37253;48.736;9.294;2023-09-18T03:13:42;2.25;;;1.95;;
51190;SDS011;37253;48.736;9.294;2023-09-18T03:15:46;3.75;;;1.70;;
51190;SDS011;37253;48.736;9.294;2023-09-18T03:17:48;2.10;;;1.50;;
51190;SDS011;37253;48.736;9.294;2023-09-18T03:21:50;1.80;;;1.45;;
51190;SDS011;37253;48.736;9.294;2023-09-18T03:23:50;2.80;;;1.90;;
51190;SDS011;37253;48.736;9.294;2023-09-18T03:25:51;1.70;;;1.60;;
51190;SDS011;37253;48.736;9.294;2023-09-18T03:27:52;3.50;;;1.63;;
51190;SDS011;37253;48.736;9.294;2023-09-18T03:29:52;3.45;;;1.98;;
51190;SDS011;37253;48.736;9.294;2023-09-18T03:31:53;4.78;;;1.60;;
51190;SDS011;37253;48.736;9.294;2023-09-18T03:33:55;3.47;;;1.85;;
51190;SDS011;37253;48.736;9.294;2023-09-18T03:35:55;1.70;;;1.52;;
51190;SDS011;37253;48.736;9.294;2023-09-18T03:37:58;1.77;;;1.63;;
51190;SDS011;37253;48.736;9.294;2023-09-18T03:39:59;2.42;;;1.70;;
51190;SDS011;37253;48.736;9.294;2023-09-18T03:41:59;1.90;;;1.65;;
51190;SDS011;37253;48.736;9.294;2023-09-18T03:44:00;1.92;;;1.70;;
51190;SDS011;37253;48.736;9.294;2023-09-18T03:46:06;2.80;;;1.70;;
51190;SDS011;37253;48.736;9.294;2023-09-18T03:48:07;2.47;;;1.80;;
51190;SDS011;37253;48.736;9.294;2023-09-18T03:50:08;1.98;;;1.67;;
51190;SDS011;37253;48.736;9.294;2023-09-18T03:52:08;2.28;;;1.70;;
51190;SDS011;37253;48.736;9.294;2023-09-18T03:54:09;2.38;;;1.65;;
51190;SDS011;37253;48.736;9.294;2023-09-18T03:56:09;1.98;;;1.70;;
51190;SDS011;37253;48.736;9.294;2023-09-18T03:58:09;1.60;;;1.50;;
51190;SDS011;37253;48.736;9.294;2023-09-18T04:00:11;2.20;;;1.90;;
51190;SDS011;37253;48.736;9.294;2023-09-18T04:02:11;3.80;;;1.75;;
51190;SDS011;37253;48.736;9.294;2023-09-18T04:04:12;2.17;;;1.70;;
51190;SDS011;37253;48.736;9.294;2023-09-18T04:06:12;1.65;;;1.40;;
51190;SDS011;37253;48.736;9.294;2023-09-18T04:08:12;2.17;;;1.67;;
51190;SDS011;37253;48.736;9.294;2023-09-18T04:10:13;2.00;;;1.75;;
51190;SDS011;37253;48.736;9.294;2023-09-18T04:12:23;2.30;;;1.90;;
51190;SDS011;37253;48.736;9.294;2023-09-18T04:14:23;2.20;;;2.00;;
51190;SDS011;37253;48.736;9.294;2023-09-18T04:16:25;2.97;;;1.83;;
51190;SDS011;37253;48.736;9.294;2023-09-18T04:18:26;1.88;;;1.77;;
51190;SDS011;37253;48.736;9.294;2023-09-18T04:20:27;2.10;;;1.88;;
51190;SDS011;37253;48.736;9.294;2023-09-18T04:22:27;2.85;;;1.60;;
51190;SDS011;37253;48.736;9.294;2023-09-18T04:24:27;2.08;;;1.52;;
51190;SDS011;37253;48.736;9.294;2023-09-18T04:26:28;2.08;;;1.70;;
51190;SDS011;37253;48.736;9.294;2023-09-18T04:28:30;2.95;;;1.92;;
51190;SDS011;37253;48.736;9.294;2023-09-18T04:30:30;2.35;;;1.50;;
51190;SDS011;37253;48.736;9.294;2023-09-18T04:32:31;2.00;;;1.70;;
51190;SDS011;37253;48.736;9.294;2023-09-18T04:34:31;2.63;;;1.85;;
51190;SDS011;37253;48.736;9.294;2023-09-18T04:36:32;1.80;;;1.70;;
51190;SDS011;37253;48.736;9.294;2023-09-18T04:38:32;3.22;;;1.65;;
51190;SDS011;37253;48.736;9.294;2023-09-18T04:40:32;2.17;;;1.50;;
51190;SDS011;37253;48.736;9.294;2023-09-18T04:42:33;2.78;;;1.60;;
51190;SDS011;37253;48.736;9.294;2023-09-18T04:44:33;3.03;;;1.48;;
51190;SDS011;37253;48.736;9.294;2023-09-18T04:46:33;2.17;;;1.75;;
51190;SDS011;37253;48.736;9.294;2023-09-18T04:48:37;2.15;;;1.60;;
51190;SDS011;37253;48.736;9.294;2023-09-18T04:50:37;2.13;;;1.55;;
51190;SDS011;37253;48.736;9.294;2023-09-18T04:52:37;2.63;;;1.70;;
51190;SDS011;37253;48.736;9.294;2023-09-18T04:54:38;4.88;;;2.05;;
51190;SDS011;37253;48.736;9.294;2023-09-18T04:56:38;2.20;;;1.67;;
51190;SDS011;37253;48.736;9.294;2023-09-18T04:58:39;3.40;;;1.52;;
51190;SDS011;37253;48.736;9.294;2023-09-18T05:00:39;3.05;;;1.80;;
51190;SDS011;37253;48.736;9.294;2023-09-18T05:02:40;1.98;;;1.67;;
51190;SDS011;37253;48.736;9.294;2023-09-18T05:04:40;3.17;;;1.65;;
51190;SDS011;37253;48.736;9.294;2023-09-18T05:06:41;2.20;;;1.70;;
51190;SDS011;37253;48.736;9.294;2023-09-18T05:08:43;3.58;;;1.90;;
51190;SDS011;37253;48.736;9.294;2023-09-18T05:10:43;2.60;;;1.52;;
51190;SDS011;37253;48.736;9.294;2023-09-18T05:12:44;3.22;;;1.80;;
51190;SDS011;37253;48.736;9.294;2023-09-18T05:14:44;5.95;;;1.80;;
51190;SDS011;37253;48.736;9.294;2023-09-18T05:16:44;3.85;;;1.70;;
51190;SDS011;37253;48.736;9.294;2023-09-18T05:18:45;2.95;;;1.70;;
51190;SDS011;37253;48.736;9.294;2023-09-18T05:20:45;2.38;;;1.50;;
51190;SDS011;37253;48.736;9.294;2023-09-18T05:22:45;2.78;;;1.50;;
51190;SDS011;37253;48.736;9.294;2023-09-18T05:24:45;3.03;;;1.60;;
51190;SDS011;37253;48.736;9.294;2023-09-18T05:26:46;2.75;;;1.50;;
51190;SDS011;37253;48.736;9.294;2023-09-18T05:28:46;3.65;;;1.90;;
51190;SDS011;37253;48.736;9.294;2023-09-18T05:30:47;4.18;;;1.83;;
51190;SDS011;37253;48.736;9.294;2023-09-18T05:32:48;4.13;;;1.85;;
51190;SDS011;37253;48.736;9.294;2023-09-18T05:34:48;6.22;;;2.20;;
51190;SDS011;37253;48.736;9.294;2023-09-18T05:36:48;2.95;;;1.80;;
51190;SDS011;37253;48.736;9.294;2023-09-18T05:38:49;3.60;;;1.85;;
51190;SDS011;37253;48.736;9.294;2023-09-18T05:40:49;4.13;;;1.70;;
51190;SDS011;37253;48.736;9.294;2023-09-18T05:42:49;6.95;;;1.73;;
51190;SDS011;37253;48.736;9.294;2023-09-18T05:44:49;8.77;;;1.80;;
51190;SDS011;37253;48.736;9.294;2023-09-18T05:46:50;5.43;;;2.15;;
51190;SDS011;37253;48.736;9.294;2023-09-18T05:48:51;4.60;;;1.60;;
51190;SDS011;37253;48.736;9.294;2023-09-18T05:50:53;5.03;;;1.67;;
51190;SDS011;37253;48.736;9.294;2023-09-18T05:52:54;8.15;;;2.03;;
51190;SDS011;37253;48.736;9.294;2023-09-18T05:54:54;8.15;;;2.03;;
51190;SDS011;37253;48.736;9.294;2023-09-18T05:56:55;3.28;;;1.45;;
51190;SDS011;37253;48.736;9.294;2023-09-18T05:58:55;6.25;;;1.67;;
51190;SDS011;37253;48.736;9.294;2023-09-18T06:00:55;5.93;;;1.58;;
51190;SDS011;37253;48.736;9.294;2023-09-18T06:02:56;7.07;;;1.65;;
51190;SDS011;37253;48.736;9.294;2023-09-18T06:04:57;9.90;;;1.63;;
51190;SDS011;37253;48.736;9.294;2023-09-18T06:07:00;5.55;;;1.85;;
51190;SDS011;37253;48.736;9.294;2023-09-18T06:09:00;8.23;;;1.90;;
51190;SDS011;37253;48.736;9.294;2023-09-18T06:11:01;7.30;;;1.63;;
51190;SDS011;37253;48.736;9.294;2023-09-18T06:13:01;4.93;;;1.65;;
51190;SDS011;37253;48.736;9.294;2023-09-18T06:15:04;4.82;;;1.88;;
51190;SDS011;37253;48.736;9.294;2023-09-18T06:17:05;10.50;;;1.80;;
51190;SDS011;37253;48.736;9.294;2023-09-18T06:19:06;6.85;;;1.70;;
51190;SDS011;37253;48.736;9.294;2023-09-18T06:21:06;6.95;;;1.75;;
51190;SDS011;37253;48.736;9.294;2023-09-18T06:23:06;4.80;;;1.60;;
51190;SDS011;37253;48.736;9.294;2023-09-18T06:25:07;10.95;;;2.08;;
51190;SDS011;37253;48.736;9.294;2023-09-18T06:27:09;7.38;;;2.05;;
51190;SDS011;37253;48.736;9.294;2023-09-18T06:29:11;9.18;;;2.08;;
51190;SDS011;37253;48.736;9.294;2023-09-18T06:31:11;13.23;;;2.30;;
51190;SDS011;37253;48.736;9.294;2023-09-18T06:33:11;7.25;;;1.85;;
51190;SDS011;37253;48.736;9.294;2023-09-18T06:35:12;9.60;;;2.30;;
51190;SDS011;37253;48.736;9.294;2023-09-18T06:37:12;10.02;;;2.17;;
51190;SDS011;37253;48.736;9.294;2023-09-18T06:39:13;9.02;;;1.90;;
51190;SDS011;37253;48.736;9.294;2023-09-18T06:41:13;7.38;;;1.73;;
51190;SDS011;37253;48.736;9.294;2023-09-18T06:43:14;9.80;;;2.38;;
51190;SDS011;37253;48.736;9.294;2023-09-18T06:45:14;7.78;;;1.80;;
51190;SDS011;37253;48.736;9.294;2023-09-18T06:47:14;6.50;;;1.95;;
51190;SDS011;37253;48.736;9.294;2023-09-18T06:49:15;12.88;;;2.03;;
51190;SDS011;37253;48.736;9.294;2023-09-18T06:51:15;7.28;;;1.70;;
51190;SDS011;37253;48.736;9.294;2023-09-18T06:53:16;8.82;;;2.15;;
51190;SDS011;37253;48.736;9.294;2023-09-18T06:55:16;8.80;;;2.10;;
51190;SDS011;37253;48.736;9.294;2023-09-18T06:57:16;4.95;;;2.38;;
51190;SDS011;37253;48.736;9.294;2023-09-18T06:59:17;7.15;;;1.83;;
51190;SDS011;37253;48.736;9.294;2023-09-18T07:01:18;8.00;;;2.08;;
51190;SDS011;37253;48.736;9.294;2023-09-18T07:03:19;11.27;;;2.33;;
51190;SDS011;37253;48.736;9.294;2023-09-18T07:05:19;5.40;;;1.70;;
51190;SDS011;37253;48.736;9.294;2023-09-18T07:07:19;5.15;;;1.88;;
51190;SDS011;37253;48.736;9.294;2023-09-18T07:09:25;11.75;;;2.25;;
51190;SDS011;37253;48.736;9.294;2023-09-18T07:11:25;6.30;;;1.90;;
51190;SDS011;37253;48.736;9.294;2023-09-18T07:13:26;9.38;;;2.08;;
51190;SDS011;37253;48.736;9.294;2023-09-18T07:15:26;11.73;;;1.95;;
51190;SDS011;37253;48.736;9.294;2023-09-18T07:17:26;7.53;;;1.90;;
51190;SDS011;37253;48.736;9.294;2023-09-18T07:19:27;7.95;;;2.42;;
51190;SDS011;37253;48.736;9.294;2023-09-18T07:21:27;6.68;;;2.00;;
51190;SDS011;37253;48.736;9.294;2023-09-18T07:23:29;7.18;;;1.83;;
51190;SDS011;37253;48.736;9.294;2023-09-18T07:25:29;7.00;;;1.77;;
51190;SDS011;37253;48.736;9.294;2023-09-18T07:27:29;8.80;;;2.05;;
51190;SDS011;37253;48.736;9.294;2023-09-18T07:29:30;6.03;;;1.60;;
51190;SDS011;37253;48.736;9.294;2023-09-18T07:31:30;5.22;;;1.92;;
51190;SDS011;37253;48.736;9.294;2023-09-18T07:33:30;3.72;;;1.80;;
51190;SDS011;37253;48.736;9.294;2023-09-18T07:35:31;3.50;;;1.50;;
51190;SDS011;37253;48.736;9.294;2023-09-18T07:37:31;6.70;;;1.67;;
51190;SDS011;37253;48.736;9.294;2023-09-18T07:39:31;5.35;;;1.80;;
51190;SDS011;37253;48.736;9.294;2023-09-18T07:41:32;5.22;;;1.90;;
51190;SDS011;37253;48.736;9.294;2023-09-18T07:43:33;3.95;;;1.40;;
51190;SDS011;37253;48.736;9.294;2023-09-18T07:45:33;4.22;;;1.52;;
51190;SDS011;37253;48.736;9.294;2023-09-18T07:47:34;5.40;;;1.75;;
51190;SDS011;37253;48.736;9.294;2023-09-18T07:49:34;7.10;;;1.63;;
51190;SDS011;37253;48.736;9.294;2023-09-18T07:51:34;4.85;;;1.60;;
51190;SDS011;37253;48.736;9.294;2023-09-18T07:53:35;3.83;;;1.73;;
51190;SDS011;37253;48.736;9.294;2023-09-18T07:55:35;5.10;;;1.45;;
51190;SDS011;37253;48.736;9.294;2023-09-18T07:57:35;6.65;;;1.60;;
51190;SDS011;37253;48.736;9.294;2023-09-18T07:59:37;4.95;;;1.50;;
51190;SDS011;37253;48.736;9.294;2023-09-18T08:01:38;3.35;;;1.60;;
51190;SDS011;37253;48.736;9.294;2023-09-18T08:03:39;7.22;;;2.08;;
51190;SDS011;37253;48.736;9.294;2023-09-18T08:05:40;4.68;;;1.63;;
51190;SDS011;37253;48.736;9.294;2023-09-18T08:07:40;6.53;;;1.55;;
51190;SDS011;37253;48.736;9.294;2023-09-18T08:09:40;6.30;;;2.00;;
51190;SDS011;37253;48.736;9.294;2023-09-18T08:11:41;4.10;;;1.50;;
51190;SDS011;37253;48.736;9.294;2023-09-18T08:13:42;9.80;;;1.73;;
51190;SDS011;37253;48.736;9.294;2023-09-18T08:15:43;7.70;;;1.58;;
51190;SDS011;37253;48.736;9.294;2023-09-18T08:17:43;11.15;;;1.60;;
51190;SDS011;37253;48.736;9.294;2023-09-18T08:19:44;4.20;;;1.60;;
51190;SDS011;37253;48.736;9.294;2023-09-18T08:21:44;2.85;;;1.40;;
51190;SDS011;37253;48.736;9.294;2023-09-18T08:23:44;5.82;;;1.73;;
51190;SDS011;37253;48.736;9.294;2023-09-18T08:25:45;2.05;;;1.30;;
51190;SDS011;37253;48.736;9.294;2023-09-18T08:27:47;3.33;;;1.45;;
51190;SDS011;37253;48.736;9.294;2023-09-18T08:29:48;4.68;;;1.95;;
51190;SDS011;37253;48.736;9.294;2023-09-18T08:31:48;4.65;;;1.45;;
51190;SDS011;37253;48.736;9.294;2023-09-18T08:33:49;8.20;;;1.50;;
51190;SDS011;37253;48.736;9.294;2023-09-18T08:35:50;3.60;;;1.50;;
51190;SDS011;37253;48.736;9.294;2023-09-18T08:37:51;5.13;;;1.70;;
51190;SDS011;37253;48.736;9.294;2023-09-18T08:39:51;4.93;;;1.50;;
51190;SDS011;37253;48.736;9.294;2023-09-18T08:41:51;8.15;;;1.85;;
51190;SDS011;37253;48.736;9.294;2023-09-18T08:44:04;4.10;;;1.50;;
51190;SDS011;37253;48.736;9.294;2023-09-18T08:46:07;4.53;;;1.60;;
51190;SDS011;37253;48.736;9.294;2023-09-18T08:48:07;4.75;;;1.92;;
51190;SDS011;37253;48.736;9.294;2023-09-18T08:50:08;3.97;;;1.40;;
51190;SDS011;37253;48.736;9.294;2023-09-18T08:52:11;4.30;;;1.52;;
51190;SDS011;37253;48.736;9.294;2023-09-18T08:54:12;2.80;;;1.40;;
51190;SDS011;37253;48.736;9.294;2023-09-18T08:56:13;4.03;;;1.60;;
51190;SDS011;37253;48.736;9.294;2023-09-18T08:58:13;3.28;;;1.50;;
51190;SDS011;37253;48.736;9.294;2023-09-18T09:00:15;4.50;;;1.42;;
51190;SDS011;37253;48.736;9.294;2023-09-18T09:02:18;3.28;;;1.48;;
51190;SDS011;37253;48.736;9.294;2023-09-18T09:04:18;3.45;;;1.38;;
51190;SDS011;37253;48.736;9.294;2023-09-18T09:06:18;2.78;;;1.20;;
51190;SDS011;37253;48.736;9.294;2023-09-18T09:08:19;3.97;;;1.50;;
51190;SDS011;37253;48.736;9.294;2023-09-18T09:10:21;2.88;;;1.38;;
51190;SDS011;37253;48.736;9.294;2023-09-18T09:15:01;3.20;;;1.55;;
51190;SDS011;37253;48.736;9.294;2023-09-18T09:17:03;3.47;;;1.42;;
51190;SDS011;37253;48.736;9.294;2023-09-18T09:19:03;4.82;;;1.48;;
51190;SDS011;37253;48.736;9.294;2023-09-18T09:21:04;3.83;;;1.50;;
51190;SDS011;37253;48.736;9.294;2023-09-18T09:23:05;2.83;;;1.35;;
51190;SDS011;37253;48.736;9.294;2023-09-18T09:27:20;3.60;;;1.25;;
51190;SDS011;37253;48.736;9.294;2023-09-18T09:29:20;3.00;;;1.17;;
51190;SDS011;37253;48.736;9.294;2023-09-18T09:33:30;3.50;;;1.30;;
51190;SDS011;37253;48.736;9.294;2023-09-18T09:35:31;4.57;;;1.63;;
51190;SDS011;37253;48.736;9.294;2023-09-18T09:37:33;4.30;;;1.45;;
51190;SDS011;37253;48.736;9.294;2023-09-18T09:39:34;4.20;;;1.30;;
51190;SDS011;37253;48.736;9.294;2023-09-18T09:41:34;2.17;;;1.15;;
51190;SDS011;37253;48.736;9.294;2023-09-18T09:43:35;3.55;;;1.30;;
51190;SDS011;37253;48.736;9.294;2023-09-18T09:45:35;5.75;;;1.65;;
51190;SDS011;37253;48.736;9.294;2023-09-18T09:47:36;3.55;;;1.27;;
51190;SDS011;37253;48.736;9.294;2023-09-18T09:49:46;2.17;;;1.20;;
51190;SDS011;37253;48.736;9.294;2023-09-18T09:51:47;3.08;;;1.30;;
51190;SDS011;37253;48.736;9.294;2023-09-18T09:53:48;4.93;;;1.30;;
51190;SDS011;37253;48.736;9.294;2023-09-18T09:55:54;4.57;;;1.50;;
51190;SDS011;37253;48.736;9.294;2023-09-18T09:57:56;2.25;;;1.30;;
51190;SDS011;37253;48.736;9.294;2023-09-18T10:00:04;2.95;;;1.05;;
51190;SDS011;37253;48.736;9.294;2023-09-18T10:02:33;2.90;;;1.30;;
51190;SDS011;37253;48.736;9.294;2023-09-18T10:04:34;2.33;;;1.10;;
51190;SDS011;37253;48.736;9.294;2023-09-18T10:06:36;5.05;;;1.23;;
51190;SDS011;37253;48.736;9.294;2023-09-18T10:08:37;2.40;;;1.02;;
51190;SDS011;37253;48.736;9.294;2023-09-18T10:10:39;2.83;;;1.23;;
51190;SDS011;37253;48.736;9.294;2023-09-18T10:12:47;1.50;;;1.00;;
51190;SDS011;37253;48.736;9.294;2023-09-18T10:14:49;2.10;;;1.08;;
51190;SDS011;37253;48.736;9.294;2023-09-18T10:16:53;1.55;;;1.05;;
51190;SDS011;37253;48.736;9.294;2023-09-18T10:25:59;3.15;;;1.10;;
51190;SDS011;37253;48.736;9.294;2023-09-18T10:28:00;2.20;;;1.20;;
51190;SDS011;37253;48.736;9.294;2023-09-18T10:30:02;1.98;;;0.85;;
51190;SDS011;37253;48.736;9.294;2023-09-18T10:32:05;2.03;;;1.05;;
51190;SDS011;37253;48.736;9.294;2023-09-18T10:34:09;1.88;;;1.20;;
51190;SDS011;37253;48.736;9.294;2023-09-18T10:36:11;3.58;;;1.13;;
51190;SDS011;37253;48.736;9.294;2023-09-18T10:38:11;1.75;;;1.00;;
51190;SDS011;37253;48.736;9.294;2023-09-18T10:40:12;3.28;;;1.40;;
51190;SDS011;37253;48.736;9.294;2023-09-18T10:42:12;4.25;;;1.33;;
51190;SDS011;37253;48.736;9.294;2023-09-18T10:44:14;2.55;;;1.10;;
51190;SDS011;37253;48.736;9.294;2023-09-18T10:46:17;3.10;;;1.20;;
51190;SDS011;37253;48.736;9.294;2023-09-18T10:48:19;3.45;;;1.33;;
51190;SDS011;37253;48.736;9.294;2023-09-18T10:50:23;2.20;;;1.08;;
51190;SDS011;37253;48.736;9.294;2023-09-18T10:52:25;2.33;;;1.10;;
51190;SDS011;37253;48.736;9.294;2023-09-18T10:54:25;4.88;;;1.20;;
51190;SDS011;37253;48.736;9.294;2023-09-18T10:56:26;5.30;;;1.40;;
51190;SDS011;37253;48.736;9.294;2023-09-18T10:58:26;6.65;;;1.15;;
51190;SDS011;37253;48.736;9.294;2023-09-18T11:00:28;3.17;;;1.20;;
51190;SDS011;37253;48.736;9.294;2023-09-18T11:02:31;10.82;;;1.58;;
51190;SDS011;37253;48.736;9.294;2023-09-18T11:04:31;2.40;;;1.10;;
51190;SDS011;37253;48.736;9.294;2023-09-18T11:06:58;2.90;;;0.90;;
51190;SDS011;37253;48.736;9.294;2023-09-18T11:09:02;2.35;;;0.90;;
51190;SDS011;37253;48.736;9.294;2023-09-18T11:11:08;1.38;;;0.98;;
51190;SDS011;37253;48.736;9.294;2023-09-18T11:13:11;3.63;;;1.10;;
51190;SDS011;37253;48.736;9.294;2023-09-18T11:15:29;3.30;;;1.10;;
51190;SDS011;37253;48.736;9.294;2023-09-18T11:19:36;3.45;;;1.10;;
51190;SDS011;37253;48.736;9.294;2023-09-18T11:21:42;4.47;;;1.02;;
51190;SDS011;37253;48.736;9.294;2023-09-18T11:23:43;2.55;;;1.00;;
51190;SDS011;37253;48.736;9.294;2023-09-18T11:25:43;3.70;;;1.15;;
51190;SDS011;37253;48.736;9.294;2023-09-18T11:27:53;2.30;;;1.00;;
51190;SDS011;37253;48.736;9.294;2023-09-18T11:31:56;2.90;;;0.98;;
51190;SDS011;37253;48.736;9.294;2023-09-18T11:33:57;2.90;;;1.10;;
51190;SDS011;37253;48.736;9.294;2023-09-18T11:36:02;3.40;;;1.23;;
51190;SDS011;37253;48.736;9.294;2023-09-18T11:38:06;4.32;;;1.20;;
51190;SDS011;37253;48.736;9.294;2023-09-18T11:40:26;4.00;;;1.30;;
51190;SDS011;37253;48.736;9.294;2023-09-18T11:42:28;2.13;;;1.00;;
51190;SDS011;37253;48.736;9.294;2023-09-18T11:46:29;3.00;;;1.20;;
51190;SDS011;37253;48.736;9.294;2023-09-18T11:48:30;6.65;;;1.10;;
51190;SDS011;37253;48.736;9.294;2023-09-18T11:50:33;4.85;;;1.17;;
51190;SDS011;37253;48.736;9.294;2023-09-18T11:52:35;4.63;;;1.20;;
51190;SDS011;37253;48.736;9.294;2023-09-18T11:54:35;2.58;;;1.17;;
51190;SDS011;37253;48.736;9.294;2023-09-18T11:56:36;5.85;;;1.20;;
51190;SDS011;37253;48.736;9.294;2023-09-18T11:58:46;2.90;;;1.10;;
51190;SDS011;37253;48.736;9.294;2023-09-18T12:00:46;5.13;;;1.13;;
51190;SDS011;37253;48.736;9.294;2023-09-18T12:02:47;5.95;;;1.10;;
51190;SDS011;37253;48.736;9.294;2023-09-18T12:04:49;1.92;;;1.17;;
51190;SDS011;37253;48.736;9.294;2023-09-18T12:06:49;3.75;;;1.40;;
51190;SDS011;37253;48.736;9.294;2023-09-18T12:08:51;2.38;;;1.05;;
51190;SDS011;37253;48.736;9.294;2023-09-18T12:10:52;2.88;;;1.20;;
51190;SDS011;37253;48.736;9.294;2023-09-18T12:12:56;3.78;;;1.15;;
51190;SDS011;37253;48.736;9.294;2023-09-18T12:14:56;2.47;;;0.95;;
51190;SDS011;37253;48.736;9.294;2023-09-18T12:16:56;1.88;;;1.05;;
51190;SDS011;37253;48.736;9.294;2023-09-18T12:18:57;3.17;;;1.10;;
51190;SDS011;37253;48.736;9.294;2023-09-18T12:20:59;2.67;;;1.00;;
51190;SDS011;37253;48.736;9.294;2023-09-18T12:22:59;2.30;;;1.10;;
51190;SDS011;37253;48.736;9.294;2023-09-18T12:25:10;2.85;;;1.00;;
51190;SDS011;37253;48.736;9.294;2023-09-18T12:27:10;2.53;;;1.13;;
51190;SDS011;37253;48.736;9.294;2023-09-18T12:29:10;3.45;;;1.38;;
51190;SDS011;37253;48.736;9.294;2023-09-18T12:31:15;2.60;;;1.20;;
51190;SDS011;37253;48.736;9.294;2023-09-18T12:33:15;1.95;;;0.85;;
51190;SDS011;37253;48.736;9.294;2023-09-18T12:35:16;3.15;;;1.17;;